Time;durP1;ratioP1;P1;durP2;ratioP2;P2;SDS_P1;SDS_P2;PMS_P1;PMS_P2;Temp;Humidity;BMP_temperature;BMP_pressure;BME280_temperature;BME280_humidity;BME280_pressure;Samples;Min_cycle;Max_cycle;Signal;HPM_P1;HPM_P2
2021/12/12 00:02:08;;;;;;;;;;;22.80;25.50;;;;;;5164033;27;20013;-55
2021/12/12 00:04:36;;;;;;;;;;;22.70;25.60;;;;;;5164017;27;20017;-57
2021/12/12 00:07:04;;;;;;;;;;;22.70;25.50;;;;;;5150577;27;20385;-56
2021/12/12 00:09:31;;;;;;;;;;;22.70;25.50;;;;;;5163781;27;19923;-54
2021/12/12 00:11:57;;;;;;;;;;;22.80;25.40;;;;;;5163550;27;20097;-55
2021/12/12 00:14:24;;;;;;;;;;;22.80;25.30;;;;;;5168584;27;19926;-55
2021/12/12 00:16:50;;;;;;;;;;;22.70;25.40;;;;;;5164085;27;20018;-51
2021/12/12 00:19:16;;;;;;;;;;;22.80;25.30;;;;;;5166695;27;19923;-56
2021/12/12 00:21:42;;;;;;;;;;;22.90;25.40;;;;;;5166585;27;19929;-53
2021/12/12 00:24:09;;;;;;;;;;;22.80;25.50;;;;;;5163903;27;19929;-54
2021/12/12 00:26:35;;;;;;;;;;;22.80;25.40;;;;;;5150204;27;20020;-50
2021/12/12 00:29:01;;;;;;;;;;;22.70;25.50;;;;;;5163253;27;20374;-53
2021/12/12 00:31:26;;;;;;;;;;;22.70;25.50;;;;;;5163520;27;19927;-53
2021/12/12 00:33:54;;;;;;;;;;;22.80;25.40;;;;;;5168518;27;19931;-53
2021/12/12 00:36:20;;;;;;;;;;;22.80;25.30;;;;;;5163801;27;20373;-52
2021/12/12 00:38:47;;;;;;;;;;;22.80;25.40;;;;;;5163390;27;19930;-53
2021/12/12 00:41:12;;;;;;;;;;;22.80;25.20;;;;;;5168838;27;20274;-53
2021/12/12 00:43:40;;;;;;;;;;;22.90;25.10;;;;;;5163064;27;19933;-52
2021/12/12 00:46:06;;;;;;;;;;;22.90;25.10;;;;;;5168381;27;19962;-52
2021/12/12 00:48:34;;;;;;;;;;;22.90;25.10;;;;;;5162954;27;19926;-52
2021/12/12 00:51:00;;;;;;;;;;;22.90;25.10;;;;;;5162414;27;19923;-51
2021/12/12 00:53:26;;;;;;;;;;;22.80;25.20;;;;;;5168535;27;19926;-54
2021/12/12 00:55:52;;;;;;;;;;;22.80;25.20;;;;;;5163205;27;19991;-52
2021/12/12 00:58:17;;;;;;;;;;;22.90;25.10;;;;;;5162897;27;20284;-53
2021/12/12 01:01:04;;;;;;;;;;;22.90;25.10;;;;;;5168306;27;20035;-52
2021/12/12 01:03:31;;;;;;;;;;;22.80;25.30;;;;;;5162309;27;19931;-52
2021/12/12 01:05:57;;;;;;;;;;;22.90;25.20;;;;;;5162279;27;20498;-51
2021/12/12 01:08:23;;;;;;;;;;;22.90;25.20;;;;;;5167838;27;19934;-54
2021/12/12 01:10:54;;;;;;;;;;;22.90;25.10;;;;;;5162304;27;19930;-54
2021/12/12 01:13:19;;;;;;;;;;;23.00;25.00;;;;;;5168445;27;20022;-52
2021/12/12 01:15:53;;;;;;;;;;;23.00;25.00;;;;;;5162549;27;20301;-51
2021/12/12 01:18:20;;;;;;;;;;;23.00;24.90;;;;;;5162857;27;19926;-50
2021/12/12 01:20:52;;;;;;;;;;;23.00;24.90;;;;;;5167889;27;19929;-52
2021/12/12 01:23:25;;;;;;;;;;;23.00;24.90;;;;;;5162487;27;19929;-51
2021/12/12 01:25:51;;;;;;;;;;;23.00;24.80;;;;;;5162340;27;19922;-50
2021/12/12 01:28:19;;;;;;;;;;;23.00;24.80;;;;;;5167461;27;19993;-52
2021/12/12 01:30:44;;;;;;;;;;;23.00;24.80;;;;;;5162949;27;19933;-51
2021/12/12 01:33:12;;;;;;;;;;;22.90;24.90;;;;;;5162477;27;19930;-54
2021/12/12 01:35:38;;;;;;;;;;;22.90;24.90;;;;;;5167944;27;19927;-54
2021/12/12 01:40:53;;;;;;;;;;;22.90;25.00;;;;;;5162055;27;19923;-48
2021/12/12 01:43:21;;;;;;;;;;;22.90;25.10;;;;;;5167690;27;20409;-52
2021/12/12 01:45:48;;;;;;;;;;;23.00;24.90;;;;;;5161719;27;19926;-53
2021/12/12 01:48:29;;;;;;;;;;;23.00;24.90;;;;;;5166854;27;19923;-54
2021/12/12 01:50:58;;;;;;;;;;;23.00;24.90;;;;;;5168064;27;20413;-50
2021/12/12 01:53:26;;;;;;;;;;;22.90;24.80;;;;;;5162043;27;20005;-52
2021/12/12 01:55:56;;;;;;;;;;;23.10;24.70;;;;;;5167941;27;19971;-50
2021/12/12 01:58:23;;;;;;;;;;;22.90;24.80;;;;;;5162545;27;19923;-51
2021/12/12 02:00:50;;;;;;;;;;;23.00;24.80;;;;;;5161922;27;19926;-51
2021/12/12 02:03:16;;;;;;;;;;;23.00;24.70;;;;;;5167327;27;20014;-54
2021/12/12 02:05:42;;;;;;;;;;;23.10;24.60;;;;;;5161651;27;20018;-51
2021/12/12 02:08:11;;;;;;;;;;;23.10;24.60;;;;;;5162256;27;19927;-52
2021/12/12 02:10:39;;;;;;;;;;;23.00;24.70;;;;;;5167462;27;20032;-53
2021/12/12 02:13:06;;;;;;;;;;;23.10;24.50;;;;;;5162079;27;20038;-54
2021/12/12 02:15:35;;;;;;;;;;;23.10;24.60;;;;;;5147120;27;19927;-55
2021/12/12 02:18:05;;;;;;;;;;;23.10;24.60;;;;;;5153374;27;19949;-52
2021/12/12 02:20:39;;;;;;;;;;;23.10;24.50;;;;;;5165754;27;20018;-51
2021/12/12 02:23:15;;;;;;;;;;;23.00;24.50;;;;;;5169982;27;19971;-56
2021/12/12 02:36:40;;;;;;;;;;;23.20;24.20;;;;;;5165458;27;19945;-47
2021/12/12 02:39:08;;;;;;;;;;;23.20;24.10;;;;;;5146679;27;19922;-47
2021/12/12 02:41:34;;;;;;;;;;;23.20;24.00;;;;;;5170580;27;19927;-58
2021/12/12 02:44:00;;;;;;;;;;;23.30;23.90;;;;;;5166589;27;19951;-55
2021/12/12 02:46:28;;;;;;;;;;;22.80;24.20;;;;;;5166917;27;20022;-58
2021/12/12 02:49:03;;;;;;;;;;;22.80;24.20;;;;;;5170869;27;19970;-56
2021/12/12 02:51:29;;;;;;;;;;;22.80;24.20;;;;;;5165337;27;19923;-54
2021/12/12 02:53:55;;;;;;;;;;;22.80;24.10;;;;;;5152023;27;19975;-56
2021/12/12 02:56:25;;;;;;;;;;;22.70;24.20;;;;;;5165158;27;20025;-56
2021/12/12 02:58:51;;;;;;;;;;;22.80;24.10;;;;;;5165132;27;20009;-55
2021/12/12 03:01:35;;;;;;;;;;;22.80;24.10;;;;;;5170047;27;19923;-55
2021/12/12 03:04:01;;;;;;;;;;;22.80;24.00;;;;;;5165416;27;19931;-55
2021/12/12 03:06:29;;;;;;;;;;;22.80;24.00;;;;;;5164976;27;19949;-54
2021/12/12 03:08:58;;;;;;;;;;;22.80;23.90;;;;;;5170883;27;19932;-54
2021/12/12 03:11:27;;;;;;;;;;;22.80;23.90;;;;;;5181014;27;19951;-54
2021/12/12 03:13:53;;;;;;;;;;;22.80;23.80;;;;;;5164822;27;20206;-53
2021/12/12 03:16:18;;;;;;;;;;;22.90;23.80;;;;;;5151831;27;19923;-54
2021/12/12 03:18:44;;;;;;;;;;;22.80;23.80;;;;;;5164779;27;20002;-53
2021/12/12 03:21:16;;;;;;;;;;;22.90;23.70;;;;;;5168872;27;20270;-53
2021/12/12 03:23:44;;;;;;;;;;;22.90;23.60;;;;;;5165471;27;19931;-53
2021/12/12 03:26:10;;;;;;;;;;;22.90;23.70;;;;;;5164591;27;20389;-54
2021/12/12 03:28:37;;;;;;;;;;;22.90;23.80;;;;;;5170240;27;20605;-54
2021/12/12 03:31:05;;;;;;;;;;;22.90;23.80;;;;;;5164446;27;19923;-53
2021/12/12 03:33:31;;;;;;;;;;;22.80;23.80;;;;;;5164432;27;19953;-50
2021/12/12 03:35:57;;;;;;;;;;;22.90;23.80;;;;;;5169584;27;19923;-52
2021/12/12 03:38:27;;;;;;;;;;;22.80;23.80;;;;;;5164264;27;20374;-53
2021/12/12 03:40:53;;;;;;;;;;;22.80;23.70;;;;;;5164573;27;19931;-50
2021/12/12 03:43:19;;;;;;;;;;;22.80;23.60;;;;;;5169821;27;19966;-54
2021/12/12 03:45:45;;;;;;;;;;;22.90;23.50;;;;;;5164428;27;19930;-50
2021/12/12 03:48:27;;;;;;;;;;;22.90;23.50;;;;;;5169718;27;19923;-53
2021/12/12 03:50:53;;;;;;;;;;;22.90;23.50;;;;;;5169397;27;19927;-51
2021/12/12 03:53:19;;;;;;;;;;;22.90;23.50;;;;;;5164052;27;19927;-51
2021/12/12 03:55:45;;;;;;;;;;;22.90;23.50;;;;;;5169121;27;20330;-51
2021/12/12 03:58:11;;;;;;;;;;;22.80;23.70;;;;;;5164289;27;20279;-52
2021/12/12 04:00:48;;;;;;;;;;;23.00;23.60;;;;;;5163980;27;20063;-51
2021/12/12 04:03:14;;;;;;;;;;;22.90;23.60;;;;;;5169357;27;19923;-53
2021/12/12 04:05:40;;;;;;;;;;;22.90;23.70;;;;;;5163981;27;19967;-52
2021/12/12 04:08:06;;;;;;;;;;;22.90;23.80;;;;;;5145063;27;20013;-52
2021/12/12 04:10:32;;;;;;;;;;;22.90;23.80;;;;;;5169173;27;20251;-52
2021/12/12 04:12:58;;;;;;;;;;;22.90;23.90;;;;;;5163484;27;20010;-51
2021/12/12 04:15:23;;;;;;;;;;;22.90;23.80;;;;;;5166617;27;19923;-58
2021/12/12 04:17:49;;;;;;;;;;;22.90;23.90;;;;;;5166811;27;20430;-49
2021/12/12 04:20:17;;;;;;;;;;;22.80;23.90;;;;;;5163770;27;19923;-53
2021/12/12 04:22:42;;;;;;;;;;;22.80;24.00;;;;;;5169293;27;20300;-49
2021/12/12 04:25:08;;;;;;;;;;;22.90;24.00;;;;;;5163706;27;20384;-51
2021/12/12 04:27:35;;;;;;;;;;;22.80;24.10;;;;;;5163544;27;19974;-49
2021/12/12 04:30:03;;;;;;;;;;;22.80;24.10;;;;;;5168929;27;19929;-50
2021/12/12 04:32:29;;;;;;;;;;;22.80;24.20;;;;;;5162717;27;19929;-51
2021/12/12 04:34:56;;;;;;;;;;;22.90;24.10;;;;;;5163525;27;20318;-51
2021/12/12 04:37:22;;;;;;;;;;;22.80;24.20;;;;;;5168382;27;20229;-53
2021/12/12 04:39:50;;;;;;;;;;;22.80;24.10;;;;;;5163132;27;20013;-52
2021/12/12 04:42:20;;;;;;;;;;;22.80;24.10;;;;;;5132686;27;20346;-52
2021/12/12 04:44:47;;;;;;;;;;;22.80;24.10;;;;;;5162939;27;20021;-50
2021/12/12 04:50:17;;;;;;;;;;;22.80;24.10;;;;;;5168131;27;20208;-49
2021/12/12 04:53:03;;;;;;;;;;;22.80;24.00;;;;;;5148913;27;19923;-50
2021/12/12 04:55:32;;;;;;;;;;;22.80;24.00;;;;;;5144732;27;19923;-48
2021/12/12 04:58:12;;;;;;;;;;;22.80;24.00;;;;;;5147816;27;19970;-56
2021/12/12 05:00:41;;;;;;;;;;;22.80;24.00;;;;;;5168540;27;19923;-51
2021/12/12 05:03:12;;;;;;;;;;;22.80;24.00;;;;;;5139844;27;19976;-50
2021/12/12 05:05:48;;;;;;;;;;;22.80;24.00;;;;;;5149491;27;19927;-52
2021/12/12 05:08:15;;;;;;;;;;;22.80;23.90;;;;;;5132989;27;19930;-49
2021/12/12 05:10:42;;;;;;;;;;;22.80;23.90;;;;;;5162674;27;19922;-48
2021/12/12 05:13:13;;;;;;;;;;;22.80;23.90;;;;;;5135301;27;20457;-47
2021/12/12 05:15:43;;;;;;;;;;;22.80;23.90;;;;;;5144167;27;19979;-47
2021/12/12 05:18:11;;;;;;;;;;;22.80;23.90;;;;;;5162873;27;19973;-48
2021/12/12 05:20:47;;;;;;;;;;;22.80;23.80;;;;;;5127763;27;19946;-52
2021/12/12 05:23:14;;;;;;;;;;;22.80;23.80;;;;;;5162322;27;19923;-48
2021/12/12 05:25:45;;;;;;;;;;;22.90;23.70;;;;;;5162286;27;19927;-50
2021/12/12 05:28:11;;;;;;;;;;;22.90;23.70;;;;;;5167533;27;19930;-48
2021/12/12 05:30:37;;;;;;;;;;;22.80;23.70;;;;;;5162788;27;20393;-48
2021/12/12 05:33:03;;;;;;;;;;;22.80;23.70;;;;;;5162440;27;20478;-45
2021/12/12 05:35:31;;;;;;;;;;;22.90;23.70;;;;;;5149310;27;20386;-49
2021/12/12 05:37:57;;;;;;;;;;;22.80;23.60;;;;;;5162480;27;19922;-52
2021/12/12 05:40:24;;;;;;;;;;;22.80;23.60;;;;;;5149312;27;19927;-48
2021/12/12 05:42:50;;;;;;;;;;;22.80;23.50;;;;;;5162076;27;19931;-47
2021/12/12 05:45:16;;;;;;;;;;;22.90;23.50;;;;;;5161718;27;20025;-51
2021/12/12 05:47:41;;;;;;;;;;;22.90;23.40;;;;;;5167664;27;19923;-46
2021/12/12 05:50:08;;;;;;;;;;;22.90;23.30;;;;;;5147256;27;19930;-49
2021/12/12 05:52:33;;;;;;;;;;;22.90;23.30;;;;;;5166784;27;19929;-48
2021/12/12 05:54:59;;;;;;;;;;;22.80;23.30;;;;;;5172193;27;20389;-49
2021/12/12 05:57:26;;;;;;;;;;;22.80;23.30;;;;;;5166274;27;19922;-45
2021/12/12 05:59:53;;;;;;;;;;;22.90;23.30;;;;;;5170059;27;19945;-54
2021/12/12 06:02:19;;;;;;;;;;;22.80;23.30;;;;;;5168316;27;19929;-47
2021/12/12 06:04:45;;;;;;;;;;;22.90;23.20;;;;;;5165912;27;20021;-46
2021/12/12 06:07:17;;;;;;;;;;;22.90;23.20;;;;;;5153423;27;19926;-46
2021/12/12 06:09:43;;;;;;;;;;;22.80;23.20;;;;;;5166350;27;19935;-48
2021/12/12 06:12:09;;;;;;;;;;;23.00;23.10;;;;;;5147793;27;20013;-47
2021/12/12 06:14:35;;;;;;;;;;;22.80;23.20;;;;;;5171866;27;20028;-49
2021/12/12 06:17:01;;;;;;;;;;;22.90;23.20;;;;;;5165976;27;19930;-46
2021/12/12 06:19:29;;;;;;;;;;;22.90;23.20;;;;;;5165914;27;19933;-47
2021/12/12 06:21:55;;;;;;;;;;;22.90;23.30;;;;;;5137303;27;20009;-49
2021/12/12 06:24:22;;;;;;;;;;;23.00;23.30;;;;;;5165822;27;20377;-47
2021/12/12 06:26:48;;;;;;;;;;;22.90;23.30;;;;;;5171914;27;19922;-46
2021/12/12 06:29:14;;;;;;;;;;;22.90;23.30;;;;;;5166189;27;19933;-50
2021/12/12 06:31:43;;;;;;;;;;;23.00;23.20;;;;;;5166077;27;19930;-49
2021/12/12 06:34:09;;;;;;;;;;;22.90;23.20;;;;;;5171369;27;19923;-48
2021/12/12 06:36:35;;;;;;;;;;;23.00;23.20;;;;;;5165626;27;19934;-49
2021/12/12 06:39:00;;;;;;;;;;;23.00;23.10;;;;;;5165825;27;19930;-48
2021/12/12 06:41:26;;;;;;;;;;;23.00;23.20;;;;;;5170593;27;19923;-51
2021/12/12 06:43:52;;;;;;;;;;;23.00;23.30;;;;;;5165775;27;20297;-48
2021/12/12 06:46:18;;;;;;;;;;;22.90;23.20;;;;;;5151966;27;19927;-51
2021/12/12 06:48:44;;;;;;;;;;;23.00;23.10;;;;;;5166828;27;19934;-48
2021/12/12 06:51:10;;;;;;;;;;;23.00;23.10;;;;;;5165406;27;19930;-46
2021/12/12 06:53:36;;;;;;;;;;;23.00;23.10;;;;;;5170801;27;19934;-49
2021/12/12 06:56:02;;;;;;;;;;;23.00;23.10;;;;;;5165204;27;19927;-50
2021/12/12 06:58:29;;;;;;;;;;;23.00;23.10;;;;;;5129178;27;19943;-48
2021/12/12 07:01:03;;;;;;;;;;;23.00;23.10;;;;;;5169891;27;19923;-47
2021/12/12 07:03:29;;;;;;;;;;;23.00;23.10;;;;;;5165522;27;20440;-47
2021/12/12 07:05:58;;;;;;;;;;;23.00;23.10;;;;;;5129399;27;19970;-45
2021/12/12 07:08:23;;;;;;;;;;;23.00;23.00;;;;;;5170800;27;19926;-46
2021/12/12 07:10:49;;;;;;;;;;;23.10;23.00;;;;;;5164942;27;19945;-46
2021/12/12 07:13:15;;;;;;;;;;;23.00;22.90;;;;;;5151591;27;19989;-47
2021/12/12 07:15:42;;;;;;;;;;;23.00;23.00;;;;;;5164828;27;19923;-45
2021/12/12 07:18:09;;;;;;;;;;;23.00;23.00;;;;;;5164315;27;20031;-50
2021/12/12 07:20:35;;;;;;;;;;;23.00;23.00;;;;;;5170108;27;19923;-47
2021/12/12 07:23:04;;;;;;;;;;;23.10;23.00;;;;;;5146400;27;20013;-45
2021/12/12 07:25:31;;;;;;;;;;;23.00;23.00;;;;;;5164777;27;20557;-46
2021/12/12 07:27:56;;;;;;;;;;;23.00;23.00;;;;;;5151902;27;20020;-46
2021/12/12 07:30:22;;;;;;;;;;;23.10;23.00;;;;;;5164674;27;19956;-46
2021/12/12 07:32:48;;;;;;;;;;;23.10;23.00;;;;;;5149288;27;19950;-55
2021/12/12 07:35:14;;;;;;;;;;;23.10;23.00;;;;;;5166826;27;19934;-47
2021/12/12 07:37:39;;;;;;;;;;;23.10;23.00;;;;;;5164257;27;19933;-46
2021/12/12 07:40:06;;;;;;;;;;;23.20;22.90;;;;;;5130558;27;19944;-45
2021/12/12 07:42:32;;;;;;;;;;;23.10;23.00;;;;;;5164504;27;19923;-45
2021/12/12 07:44:58;;;;;;;;;;;23.10;23.00;;;;;;5164372;27;20017;-46
2021/12/12 07:47:25;;;;;;;;;;;23.10;22.90;;;;;;5147404;27;20034;-61
2021/12/12 07:49:51;;;;;;;;;;;23.00;23.00;;;;;;5164359;27;20524;-50
2021/12/12 07:52:20;;;;;;;;;;;22.50;23.50;;;;;;5164467;27;19953;-58
2021/12/12 07:54:46;;;;;;;;;;;22.50;23.60;;;;;;5169593;27;19922;-57
2021/12/12 07:57:12;;;;;;;;;;;22.40;23.60;;;;;;5145425;27;19966;-56
2021/12/12 07:59:38;;;;;;;;;;;22.30;23.70;;;;;;5169884;27;19933;-55
2021/12/12 08:02:04;;;;;;;;;;;22.30;23.70;;;;;;5164122;27;19922;-55
2021/12/12 08:04:30;;;;;;;;;;;22.30;23.70;;;;;;5131854;27;19923;-55
2021/12/12 08:06:56;;;;;;;;;;;22.30;23.70;;;;;;5169365;27;19930;-54
2021/12/12 08:09:22;;;;;;;;;;;22.30;23.80;;;;;;5163906;27;19970;-53
2021/12/12 08:11:48;;;;;;;;;;;22.30;23.70;;;;;;5162943;27;20172;-54
2021/12/12 08:14:15;;;;;;;;;;;22.30;23.70;;;;;;5150031;27;20270;-53
2021/12/12 08:16:41;;;;;;;;;;;22.40;23.60;;;;;;5163943;27;19927;-52
2021/12/12 08:19:07;;;;;;;;;;;22.50;23.50;;;;;;5150500;27;19979;-54
2021/12/12 08:21:33;;;;;;;;;;;22.30;23.50;;;;;;5163504;27;19961;-53
2021/12/12 08:24:00;;;;;;;;;;;22.50;23.40;;;;;;5137256;27;20029;-55
2021/12/12 08:26:26;;;;;;;;;;;22.40;23.40;;;;;;5168989;27;19929;-51
2021/12/12 08:28:52;;;;;;;;;;;22.50;23.30;;;;;;5144468;27;19927;-56
2021/12/12 08:31:17;;;;;;;;;;;22.50;23.30;;;;;;5163335;27;20299;-52
2021/12/12 08:33:43;;;;;;;;;;;22.50;23.30;;;;;;5149866;27;20377;-55
2021/12/12 08:36:09;;;;;;;;;;;22.50;23.30;;;;;;5163730;27;19927;-53
2021/12/12 08:38:35;;;;;;;;;;;22.40;23.30;;;;;;5148758;27;19923;-55
2021/12/12 08:41:01;;;;;;;;;;;22.50;23.30;;;;;;5146975;27;20360;-52
2021/12/12 08:43:27;;;;;;;;;;;22.60;23.20;;;;;;5163390;27;20255;-52
2021/12/12 08:45:58;;;;;;;;;;;22.50;23.20;;;;;;5168709;27;19933;-52
2021/12/12 08:48:25;;;;;;;;;;;22.60;23.20;;;;;;5163163;27;19923;-54
2021/12/12 08:50:51;;;;;;;;;;;22.60;23.10;;;;;;5162899;27;20013;-52
2021/12/12 08:53:17;;;;;;;;;;;22.60;23.10;;;;;;5168764;27;20017;-52
2021/12/12 08:55:45;;;;;;;;;;;22.60;23.10;;;;;;5163517;27;20031;-53
2021/12/12 08:58:17;;;;;;;;;;;22.60;23.20;;;;;;5163128;27;19995;-52
2021/12/12 09:00:58;;;;;;;;;;;22.60;23.20;;;;;;5168647;27;19940;-52
2021/12/12 09:03:44;;;;;;;;;;;22.60;23.20;;;;;;5162782;27;19978;-52
2021/12/12 09:06:11;;;;;;;;;;;22.60;23.20;;;;;;5162071;27;20030;-50
2021/12/12 09:08:55;;;;;;;;;;;22.70;23.10;;;;;;5167982;27;20040;-54
2021/12/12 09:11:29;;;;;;;;;;;22.70;23.10;;;;;;5162513;27;19927;-52
2021/12/12 09:14:00;;;;;;;;;;;22.60;23.10;;;;;;5162906;27;19954;-53
2021/12/12 09:16:33;;;;;;;;;;;22.70;23.10;;;;;;5168208;27;19930;-52
2021/12/12 09:19:08;;;;;;;;;;;22.70;23.10;;;;;;5144255;27;19922;-49
2021/12/12 09:21:43;;;;;;;;;;;22.70;23.00;;;;;;5162495;27;20194;-52
2021/12/12 09:24:11;;;;;;;;;;;22.70;22.90;;;;;;5167757;27;20430;-52
2021/12/12 09:26:38;;;;;;;;;;;22.70;23.00;;;;;;5143918;27;19923;-51
2021/12/12 09:29:10;;;;;;;;;;;22.70;22.90;;;;;;5162301;27;19926;-52
2021/12/12 09:31:40;;;;;;;;;;;22.70;22.90;;;;;;5149747;27;19970;-52
2021/12/12 09:34:35;;;;;;;;;;;22.80;22.90;;;;;;5162402;27;19929;-52
2021/12/12 09:37:24;;;;;;;;;;;22.70;22.90;;;;;;5139830;27;20425;-50
2021/12/12 09:39:53;;;;;;;;;;;22.70;22.90;;;;;;5153698;27;19923;-53
2021/12/12 09:42:23;;;;;;;;;;;22.80;22.90;;;;;;5128961;27;19928;-54
2021/12/12 09:44:52;;;;;;;;;;;22.80;23.10;;;;;;5129066;27;20408;-51
2021/12/12 09:47:27;;;;;;;;;;;22.70;23.10;;;;;;5167334;27;19923;-52
2021/12/12 09:52:52;;;;;;;;;;;22.70;23.10;;;;;;5146419;27;19978;-54
2021/12/12 09:55:21;;;;;;;;;;;22.80;23.00;;;;;;5167814;27;19923;-52
2021/12/12 09:58:01;;;;;;;;;;;22.80;23.10;;;;;;5132815;27;20050;-52
2021/12/12 10:00:29;;;;;;;;;;;22.70;23.10;;;;;;5162135;27;19926;-52
2021/12/12 10:03:09;;;;;;;;;;;22.80;23.10;;;;;;5167478;27;19926;-50
2021/12/12 10:05:56;;;;;;;;;;;22.80;23.00;;;;;;5161733;27;20326;-53
2021/12/12 10:08:41;;;;;;;;;;;22.70;23.00;;;;;;5127003;27;20367;-52
2021/12/12 10:11:09;;;;;;;;;;;22.80;23.00;;;;;;5167636;27;20013;-53
2021/12/12 10:13:39;;;;;;;;;;;22.80;23.00;;;;;;5162295;27;20386;-49
2021/12/12 10:16:07;;;;;;;;;;;22.80;22.90;;;;;;5162055;27;19927;-48
2021/12/12 10:18:49;;;;;;;;;;;22.80;22.90;;;;;;5167245;27;20392;-48
2021/12/12 10:21:16;;;;;;;;;;;22.90;22.80;;;;;;5161394;27;19933;-48
2021/12/12 10:23:45;;;;;;;;;;;23.00;22.70;;;;;;5142632;27;20337;-51
2021/12/12 10:26:16;;;;;;;;;;;23.00;22.70;;;;;;5167507;27;19923;-51
2021/12/12 10:28:42;;;;;;;;;;;23.00;22.70;;;;;;5143545;27;19927;-51
2021/12/12 10:31:27;;;;;;;;;;;23.00;22.70;;;;;;5161849;27;19923;-48
2021/12/12 10:33:53;;;;;;;;;;;23.00;22.70;;;;;;5167382;27;19929;-50
2021/12/12 10:36:19;;;;;;;;;;;23.00;22.70;;;;;;5164746;27;19926;-49
2021/12/12 10:38:57;;;;;;;;;;;23.00;22.60;;;;;;5146819;27;19929;-49
2021/12/12 10:41:38;;;;;;;;;;;23.10;22.50;;;;;;5170932;27;19922;-49
2021/12/12 10:44:07;;;;;;;;;;;23.10;22.50;;;;;;5165408;27;19929;-47
2021/12/12 10:46:35;;;;;;;;;;;23.10;22.40;;;;;;5165948;27;19923;-43
2021/12/12 10:49:13;;;;;;;;;;;23.20;22.40;;;;;;5171055;27;19923;-56
2021/12/12 10:51:47;;;;;;;;;;;23.10;22.50;;;;;;5143001;27;19929;-54
2021/12/12 10:54:17;;;;;;;;;;;22.90;22.60;;;;;;5128413;27;19927;-55
2021/12/12 10:56:55;;;;;;;;;;;23.00;22.60;;;;;;5170869;27;19923;-55
2021/12/12 10:59:23;;;;;;;;;;;22.90;22.60;;;;;;5165106;27;19923;-52
2021/12/12 11:01:51;;;;;;;;;;;22.90;22.60;;;;;;5168541;27;20369;-55
2021/12/12 11:04:36;;;;;;;;;;;23.00;22.60;;;;;;5149896;27;20021;-52
2021/12/12 11:07:03;;;;;;;;;;;23.00;22.60;;;;;;5165326;27;19974;-49
2021/12/12 11:09:31;;;;;;;;;;;23.00;22.70;;;;;;5170791;27;19929;-50
2021/12/12 11:12:11;;;;;;;;;;;23.00;22.60;;;;;;5166062;27;20316;-48
2021/12/12 11:14:38;;;;;;;;;;;23.10;22.50;;;;;;5164880;27;20018;-47
2021/12/12 11:17:07;;;;;;;;;;;23.20;22.50;;;;;;5151716;27;20009;-47
2021/12/12 11:19:43;;;;;;;;;;;23.30;22.40;;;;;;5164421;27;19985;-52
2021/12/12 11:22:16;;;;;;;;;;;23.20;22.50;;;;;;5146487;27;19930;-52
2021/12/12 11:24:43;;;;;;;;;;;23.20;22.50;;;;;;5170448;27;19932;-52
2021/12/12 11:27:10;;;;;;;;;;;23.20;22.50;;;;;;5164602;27;19923;-48
2021/12/12 11:29:46;;;;;;;;;;;23.20;22.60;;;;;;5164510;27;19927;-46
2021/12/12 11:32:13;;;;;;;;;;;23.20;22.60;;;;;;5169976;27;19998;-53
2021/12/12 11:34:41;;;;;;;;;;;23.20;22.50;;;;;;5164666;27;20634;-56
2021/12/12 11:37:22;;;;;;;;;;;23.10;22.70;;;;;;5164260;27;20664;-49
2021/12/12 11:39:54;;;;;;;;;;;23.10;22.60;;;;;;5167329;27;19927;-48
2021/12/12 11:42:28;;;;;;;;;;;23.20;22.60;;;;;;5164657;27;19923;-58
2021/12/12 11:45:05;;;;;;;;;;;23.20;22.60;;;;;;5164554;27;19930;-54
2021/12/12 11:47:37;;;;;;;;;;;23.10;22.70;;;;;;5168673;27;19929;-54
2021/12/12 11:50:08;;;;;;;;;;;23.00;22.60;;;;;;5164482;27;19929;-52
2021/12/12 11:52:53;;;;;;;;;;;23.10;22.70;;;;;;5131307;27;19924;-52
2021/12/12 11:55:27;;;;;;;;;;;23.10;22.70;;;;;;5169408;27;19927;-49
2021/12/12 11:58:04;;;;;;;;;;;23.20;22.70;;;;;;5163899;27;20313;-49
2021/12/12 12:00:32;;;;;;;;;;;23.20;22.70;;;;;;5164593;27;20374;-55
2021/12/12 12:03:12;;;;;;;;;;;23.00;23.00;;;;;;5169574;27;19929;-56
2021/12/12 12:05:47;;;;;;;;;;;23.10;22.90;;;;;;5164127;27;20296;-52
2021/12/12 12:08:21;;;;;;;;;;;23.10;22.90;;;;;;5145235;27;20313;-50
2021/12/12 12:11:03;;;;;;;;;;;23.10;22.90;;;;;;5150761;27;19977;-48
2021/12/12 12:13:32;;;;;;;;;;;23.20;22.90;;;;;;5163786;27;19940;-50
2021/12/12 12:15:59;;;;;;;;;;;23.20;22.90;;;;;;5144888;27;19923;-49
2021/12/12 12:18:35;;;;;;;;;;;23.20;22.90;;;;;;5169741;27;19923;-57
2021/12/12 12:21:08;;;;;;;;;;;23.20;22.90;;;;;;5144914;27;19929;-54
2021/12/12 12:24:10;;;;;;;;;;;23.10;22.90;;;;;;5164129;27;21224;-56
2021/12/12 12:26:53;;;;;;;;;;;23.10;23.00;;;;;;5165412;27;19943;-56
2021/12/12 12:29:28;;;;;;;;;;;23.10;23.00;;;;;;5163511;27;19929;-51
2021/12/12 12:32:12;;;;;;;;;;;23.20;22.90;;;;;;5163435;27;19923;-54
2021/12/12 12:34:47;;;;;;;;;;;23.20;22.90;;;;;;5168882;27;19937;-58
2021/12/12 12:37:22;;;;;;;;;;;23.10;23.00;;;;;;5167634;27;19933;-56
2021/12/12 12:40:07;;;;;;;;;;;23.10;23.00;;;;;;5163394;27;19922;-56
2021/12/12 12:42:51;;;;;;;;;;;23.00;23.00;;;;;;5165252;27;20374;-54
2021/12/12 12:45:36;;;;;;;;;;;23.00;23.00;;;;;;5168725;27;19933;-54
2021/12/12 12:48:20;;;;;;;;;;;23.00;23.00;;;;;;5163246;27;20346;-53
2021/12/12 12:50:46;;;;;;;;;;;23.10;22.90;;;;;;5163090;27;20069;-54
2021/12/12 12:53:27;;;;;;;;;;;23.00;23.10;;;;;;5168072;27;19922;-54
2021/12/12 12:56:15;;;;;;;;;;;23.10;22.90;;;;;;5163390;27;19974;-49
2021/12/12 12:59:00;;;;;;;;;;;23.10;23.00;;;;;;5127712;27;20010;-53
2021/12/12 13:01:29;;;;;;;;;;;23.20;22.90;;;;;;5168455;27;19923;-51
2021/12/12 13:04:01;;;;;;;;;;;23.20;22.90;;;;;;5162873;27;20442;-52
2021/12/12 13:06:46;;;;;;;;;;;23.20;22.90;;;;;;5162777;27;19929;-57
2021/12/12 13:09:15;;;;;;;;;;;23.20;22.90;;;;;;5167977;27;20424;-55
2021/12/12 13:11:44;;;;;;;;;;;23.10;22.90;;;;;;5162421;27;20049;-55
2021/12/12 13:14:19;;;;;;;;;;;23.10;23.00;;;;;;5163071;27;20301;-54
2021/12/12 13:16:48;;;;;;;;;;;23.10;22.90;;;;;;5168134;27;19933;-56
2021/12/12 13:19:20;;;;;;;;;;;23.10;22.80;;;;;;5143988;27;20018;-55
2021/12/12 13:21:50;;;;;;;;;;;23.10;22.80;;;;;;5143891;27;20009;-51
2021/12/12 13:24:20;;;;;;;;;;;23.20;22.70;;;;;;5133467;27;19928;-56
2021/12/12 13:27:06;;;;;;;;;;;23.10;22.70;;;;;;5144130;27;20013;-55
2021/12/12 13:29:45;;;;;;;;;;;23.00;22.90;;;;;;5160071;27;20347;-54
2021/12/12 13:32:15;;;;;;;;;;;23.00;22.80;;;;;;5130937;27;19923;-53
2021/12/12 13:34:40;;;;;;;;;;;23.00;22.70;;;;;;5162940;27;19933;-56
2021/12/12 13:37:15;;;;;;;;;;;23.10;22.70;;;;;;5162468;27;20321;-54
2021/12/12 13:40:04;;;;;;;;;;;23.10;22.60;;;;;;5167746;27;20009;-53
2021/12/12 13:42:33;;;;;;;;;;;23.20;22.50;;;;;;5148096;27;19926;-56
2021/12/12 13:45:17;;;;;;;;;;;23.20;22.60;;;;;;5162235;27;20281;-55
2021/12/12 13:48:02;;;;;;;;;;;23.20;22.40;;;;;;5167374;27;19927;-55
2021/12/12 13:50:32;;;;;;;;;;;23.10;22.60;;;;;;5162515;27;20014;-55
2021/12/12 13:53:01;;;;;;;;;;;23.00;22.70;;;;;;5143744;27;19927;-54
2021/12/12 13:55:28;;;;;;;;;;;23.10;22.60;;;;;;5167480;27;20078;-51
2021/12/12 13:58:13;;;;;;;;;;;23.10;22.70;;;;;;5143735;27;19978;-60
2021/12/12 14:00:40;;;;;;;;;;;23.00;22.70;;;;;;5161897;27;19926;-56
2021/12/12 14:03:09;;;;;;;;;;;22.90;22.80;;;;;;5167347;27;20435;-54
2021/12/12 14:05:38;;;;;;;;;;;23.10;22.70;;;;;;5135893;27;20489;-56
2021/12/12 14:08:20;;;;;;;;;;;23.00;22.80;;;;;;5162155;27;20209;-55
2021/12/12 14:10:50;;;;;;;;;;;23.10;22.80;;;;;;5170577;27;19930;-55
2021/12/12 14:13:21;;;;;;;;;;;23.10;22.70;;;;;;5128956;27;20014;-56
2021/12/12 14:15:49;;;;;;;;;;;23.10;22.70;;;;;;5166336;27;20017;-52
2021/12/12 14:18:15;;;;;;;;;;;23.10;22.60;;;;;;5171674;27;19922;-53
2021/12/12 14:20:48;;;;;;;;;;;23.10;22.70;;;;;;5147176;27;20389;-58
2021/12/12 14:23:18;;;;;;;;;;;23.10;22.80;;;;;;5166913;27;19927;-58
2021/12/12 14:25:51;;;;;;;;;;;23.00;22.80;;;;;;5131347;27;20386;-56
2021/12/12 14:28:19;;;;;;;;;;;23.10;22.80;;;;;;5166329;27;20017;-54
2021/12/12 14:30:45;;;;;;;;;;;23.10;22.90;;;;;;5171447;27;19923;-54
2021/12/12 14:33:14;;;;;;;;;;;23.10;22.90;;;;;;5129905;27;19922;-56
2021/12/12 14:35:43;;;;;;;;;;;23.10;22.90;;;;;;5147459;27;20029;-57
2021/12/12 14:38:09;;;;;;;;;;;23.10;23.00;;;;;;5171062;27;20292;-54
2021/12/12 14:40:35;;;;;;;;;;;23.10;23.00;;;;;;5165562;27;19982;-54
2021/12/12 14:43:05;;;;;;;;;;;23.20;22.90;;;;;;5165285;27;20334;-50
2021/12/12 14:45:34;;;;;;;;;;;23.30;22.90;;;;;;5171249;27;20009;-56
2021/12/12 14:48:02;;;;;;;;;;;23.30;22.90;;;;;;5147691;27;19938;-57
2021/12/12 14:50:29;;;;;;;;;;;22.90;23.10;;;;;;5135865;27;19977;-55
2021/12/12 14:52:57;;;;;;;;;;;22.90;23.20;;;;;;5152215;27;19927;-56